Pagina principale
METAR-TAF:

METAR-TAF

Aeroporti :

Treviso, Italia

Aeroporto di Treviso-Istrana

latitudine: 45-41N, longitudine: 012-06E, altezza: 45 m

Osservazione

Il bollettino è stato emesso 1 ora e 12 minuti fa, alle 10:55 UTC
Vento calmo
Temperature 10°C
Umidità 66%
Pressione 1012 hPa
Visibilità 10 km o più
nessuna nube inferiore a 1500 m e nessun cumulonembo

METAR: LIPS 191055Z 00000KT CAVOK 10/04 Q1012 RMK SKC VIS MIN 9999 WIND THR26 00000KT WIND THR08 00000KT BLU

Ora: 13:07 (12:07 UTC)

Previsione

Il bollettino è stato emesso 1 ora e 7 minuti fa, alle 11:00 UTC
Previsione valida dal 19 alle 12 UTC al 19 alle 21 UTC
Vento 4 kt da direzioni variabili
Visibilità 10 km o più
nessuna nube inferiore a 1500 m e nessun cumulonembo
Evoluzione graduale
dal 19 alle 18 UTC al 19 alle 20 UTC
Visibilità: 4000 m
foschia

TAF: LIPS 191100Z 1912/1921 VRB04KT CAVOK BECMG 1918/1920 4000 BR NSC

Osservazioni e previsioni meteorologiche di più di 4000 aeroporti (messaggi METAR e TAF).

Le stazioni disponibili sono rappresentate dai dischi gialli e rossi sulla carta.

Puntare il mouse per vedere il nome della stazione.

Clicca sopra per visualizzare le osservazioni e previsioni meteorologiche.

Per cambiare la mappa : fare clic sui pulsanti verdi con una croce nera per ingrandire, il pulsante verde con un trattino per diminuire, o sulla freccia verde per le mappe adiacenti.


METAR-TAF: